Time;durP1;ratioP1;P1;durP2;ratioP2;P2;SDS_P1;SDS_P2;PMS_P1;PMS_P2;Temp;Humidity;BMP_temperature;BMP_pressure;BME280_temperature;BME280_humidity;BME280_pressure;Samples;Min_cycle;Max_cycle;Signal;HPM_P1;HPM_P2
2022/03/05 00:02:37;;;;;;;633.43;576.36;;;;;;;18.05;41.15;100729.94;;;;-52
2022/03/05 00:05:37;;;;;;;626.25;569.40;;;;;;;18.03;41.30;100728.45;;;;-53
2022/03/05 00:08:37;;;;;;;631.16;573.91;;;;;;;18.00;41.24;100730.11;;;;-52
2022/03/05 00:11:38;;;;;;;625.78;569.01;;;;;;;17.98;41.14;100727.81;;;;-52
2022/03/05 00:14:37;;;;;;;621.20;564.68;;;;;;;17.96;41.24;100724.13;;;;-52
2022/03/05 00:17:37;;;;;;;620.61;564.17;;;;;;;17.95;41.25;100728.23;;;;-52
2022/03/05 00:20:37;;;;;;;618.71;562.23;;;;;;;17.93;41.37;100719.47;;;;-52
2022/03/05 00:23:37;;;;;;;620.01;563.51;;;;;;;17.91;41.15;100728.11;;;;-52
2022/03/05 00:26:37;;;;;;;618.89;562.54;;;;;;;17.90;41.19;100728.00;;;;-54
2022/03/05 00:29:37;;;;;;;617.53;561.23;;;;;;;17.88;41.25;100727.64;;;;-54
2022/03/05 00:32:37;;;;;;;616.81;560.97;;;;;;;17.86;41.27;100725.66;;;;-54
2022/03/05 00:35:37;;;;;;;618.44;562.59;;;;;;;17.84;41.27;100730.00;;;;-54
2022/03/05 00:38:37;;;;;;;617.90;562.43;;;;;;;17.83;41.30;100732.91;;;;-54
2022/03/05 00:41:37;;;;;;;617.36;561.73;;;;;;;17.82;41.27;100731.22;;;;-54
2022/03/05 00:44:37;;;;;;;624.27;567.95;;;;;;;17.80;41.29;100732.89;;;;-54
2022/03/05 00:47:37;;;;;;;620.45;565.21;;;;;;;17.79;41.25;100732.97;;;;-54
2022/03/05 00:50:39;;;;;;;619.05;563.23;;;;;;;17.76;41.31;100738.69;;;;-52
2022/03/05 00:53:37;;;;;;;621.85;565.73;;;;;;;17.76;41.37;100737.11;;;;-52
2022/03/05 00:56:38;;;;;;;621.82;565.01;;;;;;;17.74;41.28;100737.23;;;;-58
2022/03/05 00:59:37;;;;;;;625.48;568.77;;;;;;;17.72;41.29;100737.97;;;;-52
2022/03/05 01:02:37;;;;;;;621.46;565.53;;;;;;;17.71;41.28;100740.60;;;;-52
2022/03/05 01:05:37;;;;;;;616.83;561.07;;;;;;;17.68;41.33;100743.97;;;;-54
2022/03/05 01:08:38;;;;;;;617.28;561.17;;;;;;;17.67;41.34;100740.53;;;;-52
2022/03/05 01:11:37;;;;;;;613.63;558.66;;;;;;;17.66;41.34;100739.31;;;;-53
2022/03/05 01:14:37;;;;;;;584.28;532.33;;;;;;;17.65;41.34;100740.25;;;;-52
2022/03/05 01:17:37;;;;;;;597.07;543.86;;;;;;;17.64;41.28;100739.08;;;;-53
2022/03/05 01:20:37;;;;;;;602.41;548.87;;;;;;;17.62;41.33;100735.99;;;;-52
2022/03/05 01:23:37;;;;;;;604.53;550.55;;;;;;;17.60;41.29;100736.69;;;;-52
2022/03/05 01:26:37;;;;;;;602.81;548.97;;;;;;;17.60;41.32;100731.55;;;;-58
2022/03/05 01:29:37;;;;;;;609.33;554.83;;;;;;;17.58;41.32;100733.00;;;;-58
2022/03/05 01:32:37;;;;;;;609.85;554.69;;;;;;;17.57;41.33;100729.64;;;;-59
2022/03/05 01:35:37;;;;;;;608.81;553.15;;;;;;;17.55;41.32;100726.20;;;;-54
2022/03/05 01:38:37;;;;;;;605.33;550.36;;;;;;;17.54;41.34;100726.84;;;;-55
2022/03/05 01:41:37;;;;;;;604.77;549.24;;;;;;;17.53;41.42;100727.95;;;;-53
2022/03/05 01:44:37;;;;;;;614.37;558.33;;;;;;;17.52;41.39;100728.42;;;;-52
2022/03/05 01:47:37;;;;;;;603.16;547.37;;;;;;;17.51;41.32;100730.74;;;;-58
2022/03/05 01:50:37;;;;;;;603.49;547.73;;;;;;;17.49;41.38;100728.14;;;;-58
2022/03/05 01:53:37;;;;;;;604.97;549.05;;;;;;;17.48;41.39;100727.95;;;;-53
2022/03/05 01:56:37;;;;;;;602.67;546.88;;;;;;;17.47;41.30;100729.61;;;;-53
2022/03/05 01:59:37;;;;;;;606.79;550.80;;;;;;;17.45;41.31;100729.84;;;;-52
2022/03/05 02:02:37;;;;;;;611.27;554.98;;;;;;;17.43;41.41;100731.03;;;;-52
2022/03/05 02:05:37;;;;;;;601.57;545.73;;;;;;;17.43;41.31;100732.20;;;;-52
2022/03/05 02:08:37;;;;;;;603.31;547.37;;;;;;;17.40;41.40;100731.11;;;;-53
2022/03/05 02:11:37;;;;;;;602.21;546.43;;;;;;;17.40;41.28;100727.22;;;;-52
2022/03/05 02:14:37;;;;;;;599.90;544.27;;;;;;;17.40;41.39;100728.77;;;;-52
2022/03/05 02:17:37;;;;;;;600.18;544.43;;;;;;;17.38;41.44;100727.42;;;;-52
2022/03/05 02:20:37;;;;;;;597.64;542.05;;;;;;;17.37;41.29;100729.20;;;;-53
2022/03/05 02:23:37;;;;;;;595.74;540.43;;;;;;;17.36;41.35;100727.55;;;;-52
2022/03/05 02:26:37;;;;;;;587.57;532.77;;;;;;;17.35;41.40;100728.84;;;;-52
2022/03/05 02:29:37;;;;;;;583.93;529.12;;;;;;;17.33;41.39;100729.53;;;;-52
2022/03/05 02:32:37;;;;;;;576.93;522.68;;;;;;;17.32;41.39;100730.71;;;;-54
2022/03/05 02:35:37;;;;;;;579.99;525.39;;;;;;;17.31;41.37;100731.36;;;;-54
2022/03/05 02:38:37;;;;;;;588.65;533.60;;;;;;;17.31;41.36;100728.77;;;;-52
2022/03/05 02:41:37;;;;;;;587.95;532.76;;;;;;;17.29;41.38;100725.97;;;;-52
2022/03/05 02:44:37;;;;;;;589.61;534.27;;;;;;;17.28;41.48;100724.72;;;;-52
2022/03/05 02:47:37;;;;;;;594.52;539.15;;;;;;;17.26;41.37;100727.19;;;;-54
2022/03/05 02:50:37;;;;;;;590.21;535.02;;;;;;;17.26;41.38;100726.17;;;;-54
2022/03/05 02:53:37;;;;;;;589.31;534.29;;;;;;;17.25;41.32;100726.62;;;;-54
2022/03/05 02:56:37;;;;;;;591.91;536.51;;;;;;;17.24;41.41;100730.06;;;;-54
2022/03/05 02:59:37;;;;;;;592.46;536.94;;;;;;;17.24;41.42;100735.89;;;;-54
2022/03/05 03:02:37;;;;;;;597.32;541.54;;;;;;;17.22;41.31;100734.03;;;;-54
2022/03/05 03:05:37;;;;;;;589.58;534.28;;;;;;;17.22;41.43;100736.98;;;;-54
2022/03/05 03:08:37;;;;;;;583.15;528.13;;;;;;;17.21;41.40;100737.47;;;;-54
2022/03/05 03:11:37;;;;;;;581.39;526.55;;;;;;;17.20;41.46;100737.59;;;;-53
2022/03/05 03:14:37;;;;;;;578.28;523.56;;;;;;;17.20;41.37;100738.23;;;;-52
2022/03/05 03:17:37;;;;;;;572.07;517.56;;;;;;;17.18;41.39;100733.58;;;;-54
2022/03/05 03:20:37;;;;;;;563.19;509.38;;;;;;;17.17;41.40;100737.71;;;;-53
2022/03/05 03:23:37;;;;;;;560.68;506.84;;;;;;;17.16;41.37;100734.44;;;;-52
2022/03/05 03:26:37;;;;;;;525.30;473.78;;;;;;;17.15;41.40;100739.13;;;;-54
2022/03/05 03:29:37;;;;;;;532.21;479.87;;;;;;;17.14;41.36;100739.00;;;;-58
2022/03/05 03:32:37;;;;;;;538.09;485.62;;;;;;;17.13;41.45;100743.38;;;;-58
2022/03/05 03:35:37;;;;;;;538.45;485.85;;;;;;;17.13;41.42;100742.33;;;;-58
2022/03/05 03:38:37;;;;;;;545.77;493.04;;;;;;;17.12;41.33;100744.39;;;;-58
2022/03/05 03:41:37;;;;;;;545.27;492.39;;;;;;;17.11;41.47;100746.33;;;;-54
2022/03/05 03:44:37;;;;;;;543.84;490.89;;;;;;;17.10;41.50;100741.47;;;;-54
2022/03/05 03:47:37;;;;;;;550.35;497.02;;;;;;;17.09;41.39;100749.28;;;;-53
2022/03/05 03:50:37;;;;;;;552.45;499.06;;;;;;;17.08;41.41;100751.14;;;;-53
2022/03/05 03:53:37;;;;;;;556.27;502.79;;;;;;;17.08;41.46;100752.08;;;;-53
2022/03/05 03:56:37;;;;;;;558.78;505.03;;;;;;;17.06;41.41;100754.09;;;;-54
2022/03/05 03:59:37;;;;;;;551.95;498.76;;;;;;;17.06;41.45;100757.89;;;;-53
2022/03/05 04:02:37;;;;;;;550.12;496.93;;;;;;;17.05;41.34;100759.89;;;;-52
2022/03/05 04:05:37;;;;;;;554.72;501.22;;;;;;;17.04;41.41;100757.86;;;;-52
2022/03/05 04:08:46;;;;;;;560.03;506.30;;;;;;;17.03;41.44;100761.87;;;;-54
2022/03/05 04:11:37;;;;;;;565.62;511.59;;;;;;;17.03;41.48;100765.91;;;;-53
2022/03/05 04:14:38;;;;;;;564.39;510.22;;;;;;;17.01;41.51;100767.90;;;;-53
2022/03/05 04:17:37;;;;;;;570.49;516.13;;;;;;;17.01;41.34;100772.83;;;;-52
2022/03/05 04:20:37;;;;;;;577.18;522.35;;;;;;;17.01;41.49;100768.95;;;;-58
2022/03/05 04:23:37;;;;;;;568.55;514.27;;;;;;;17.00;41.39;100773.15;;;;-58
2022/03/05 04:26:38;;;;;;;566.95;512.77;;;;;;;16.99;41.39;100770.36;;;;-58
2022/03/05 04:29:37;;;;;;;565.98;511.99;;;;;;;16.98;41.47;100769.14;;;;-58
2022/03/05 04:32:38;;;;;;;564.57;510.65;;;;;;;16.96;41.34;100770.31;;;;-52
2022/03/05 04:35:37;;;;;;;565.70;511.67;;;;;;;16.95;41.47;100771.16;;;;-52
2022/03/05 04:38:37;;;;;;;563.89;510.00;;;;;;;16.94;41.48;100772.70;;;;-52
2022/03/05 04:41:37;;;;;;;556.28;502.74;;;;;;;16.95;41.45;100778.37;;;;-54
2022/03/05 04:44:37;;;;;;;557.48;503.81;;;;;;;16.93;41.40;100778.20;;;;-54
2022/03/05 04:47:37;;;;;;;561.29;507.49;;;;;;;16.92;41.41;100780.59;;;;-54
2022/03/05 04:50:37;;;;;;;556.51;502.92;;;;;;;16.92;41.43;100786.97;;;;-57
2022/03/05 04:53:37;;;;;;;559.99;506.13;;;;;;;16.91;41.49;100783.17;;;;-58
2022/03/05 04:56:38;;;;;;;564.83;510.82;;;;;;;16.91;41.39;100782.97;;;;-52
2022/03/05 04:59:37;;;;;;;558.01;504.26;;;;;;;16.90;41.41;100783.38;;;;-52
2022/03/05 05:02:37;;;;;;;551.61;498.04;;;;;;;16.89;41.41;100784.74;;;;-52
2022/03/05 05:05:37;;;;;;;558.65;504.84;;;;;;;16.89;41.41;100784.30;;;;-52
2022/03/05 05:08:37;;;;;;;556.68;502.76;;;;;;;16.71;38.24;100792.47;;;;-53
2022/03/05 05:11:37;;;;;;;553.99;500.23;;;;;;;16.51;36.57;100789.65;;;;-52
2022/03/05 05:14:37;;;;;;;518.84;466.21;;;;;;;16.61;38.29;100794.09;;;;-54
2022/03/05 05:17:37;;;;;;;525.64;472.89;;;;;;;16.64;39.26;100795.52;;;;-53
2022/03/05 05:20:37;;;;;;;523.65;471.21;;;;;;;16.66;39.58;100801.00;;;;-53
2022/03/05 05:23:37;;;;;;;532.14;479.31;;;;;;;16.65;39.58;100802.12;;;;-52
2022/03/05 05:26:37;;;;;;;540.13;486.79;;;;;;;16.66;39.89;100805.37;;;;-56
2022/03/05 05:29:37;;;;;;;538.32;485.37;;;;;;;16.65;39.93;100806.00;;;;-57
2022/03/05 05:32:37;;;;;;;534.62;481.87;;;;;;;16.63;40.00;100809.77;;;;-57
2022/03/05 05:35:37;;;;;;;532.43;479.73;;;;;;;16.64;40.18;100816.81;;;;-56
2022/03/05 05:38:37;;;;;;;530.70;478.09;;;;;;;16.63;40.21;100815.59;;;;-56
2022/03/05 05:41:37;;;;;;;535.03;482.26;;;;;;;16.63;40.24;100816.96;;;;-56
2022/03/05 05:44:37;;;;;;;538.50;485.47;;;;;;;16.63;40.31;100819.30;;;;-56
2022/03/05 05:47:37;;;;;;;542.39;489.23;;;;;;;16.63;40.32;100820.77;;;;-54
2022/03/05 05:50:37;;;;;;;545.05;491.91;;;;;;;16.62;40.37;100817.92;;;;-54
2022/03/05 05:53:37;;;;;;;540.52;487.58;;;;;;;16.62;40.52;100821.48;;;;-56
2022/03/05 05:56:37;;;;;;;522.23;470.31;;;;;;;16.62;40.54;100824.13;;;;-52
2022/03/05 05:59:37;;;;;;;531.52;479.13;;;;;;;16.61;40.51;100824.59;;;;-54
2022/03/05 06:02:37;;;;;;;555.28;501.55;;;;;;;16.62;40.70;100827.72;;;;-54
2022/03/05 06:05:37;;;;;;;560.01;505.84;;;;;;;16.62;40.65;100828.97;;;;-55
2022/03/05 06:08:37;;;;;;;554.85;501.04;;;;;;;16.61;40.72;100829.30;;;;-56
2022/03/05 06:11:37;;;;;;;556.53;502.75;;;;;;;16.60;40.67;100835.19;;;;-57
2022/03/05 06:14:37;;;;;;;559.04;505.01;;;;;;;16.60;40.68;100835.52;;;;-55
2022/03/05 06:17:37;;;;;;;554.79;501.09;;;;;;;16.61;40.75;100839.89;;;;-57
2022/03/05 06:20:37;;;;;;;555.70;501.79;;;;;;;16.60;40.72;100842.39;;;;-56
2022/03/05 06:23:37;;;;;;;552.17;498.47;;;;;;;16.60;40.79;100842.52;;;;-58
2022/03/05 06:26:37;;;;;;;554.25;500.51;;;;;;;16.60;40.71;100846.84;;;;-58
2022/03/05 06:29:37;;;;;;;558.23;504.30;;;;;;;16.59;40.77;100851.00;;;;-58
2022/03/05 06:32:37;;;;;;;553.79;500.01;;;;;;;16.60;40.83;100853.52;;;;-57
2022/03/05 06:35:37;;;;;;;553.40;499.59;;;;;;;16.59;40.80;100854.81;;;;-55
2022/03/05 06:38:37;;;;;;;557.75;503.87;;;;;;;16.59;40.81;100861.44;;;;-57
2022/03/05 06:41:37;;;;;;;553.57;499.93;;;;;;;16.59;40.89;100866.94;;;;-57
2022/03/05 06:44:38;;;;;;;552.02;498.47;;;;;;;16.59;40.84;100874.95;;;;-52
2022/03/05 06:47:37;;;;;;;548.91;495.58;;;;;;;16.58;40.86;100874.63;;;;-58
2022/03/05 06:50:37;;;;;;;544.92;491.64;;;;;;;16.58;40.88;100875.03;;;;-58
2022/03/05 06:53:37;;;;;;;545.59;492.38;;;;;;;16.57;40.87;100873.37;;;;-52
2022/03/05 06:56:37;;;;;;;550.03;496.61;;;;;;;16.59;40.83;100876.41;;;;-55
2022/03/05 06:59:37;;;;;;;552.09;498.53;;;;;;;16.59;40.92;100876.89;;;;-56
2022/03/05 07:02:37;;;;;;;548.23;494.69;;;;;;;16.58;40.93;100879.36;;;;-56
2022/03/05 07:05:37;;;;;;;549.15;495.77;;;;;;;16.58;40.89;100882.71;;;;-52
2022/03/05 07:08:37;;;;;;;548.90;495.33;;;;;;;16.59;40.85;100883.20;;;;-55
2022/03/05 07:11:37;;;;;;;544.47;491.27;;;;;;;16.58;40.93;100889.92;;;;-51
2022/03/05 07:14:37;;;;;;;539.35;486.43;;;;;;;16.58;40.90;100885.30;;;;-55
2022/03/05 07:17:37;;;;;;;541.51;488.34;;;;;;;16.59;40.89;100885.16;;;;-56
2022/03/05 07:20:37;;;;;;;542.75;489.59;;;;;;;16.58;40.90;100885.87;;;;-52
2022/03/05 07:23:37;;;;;;;536.28;483.58;;;;;;;16.58;40.94;100885.39;;;;-57
2022/03/05 07:26:37;;;;;;;535.20;482.82;;;;;;;16.58;40.86;100886.68;;;;-57
2022/03/05 07:29:37;;;;;;;514.91;463.33;;;;;;;16.58;40.91;100887.94;;;;-54
2022/03/05 07:32:37;;;;;;;504.00;453.08;;;;;;;16.58;40.88;100884.86;;;;-56
2022/03/05 07:35:37;;;;;;;517.19;465.37;;;;;;;16.57;40.85;100885.51;;;;-52
2022/03/05 07:38:40;;;;;;;520.75;468.81;;;;;;;16.57;40.92;100885.59;;;;-52
2022/03/05 07:41:37;;;;;;;521.01;468.99;;;;;;;16.57;40.84;100889.63;;;;-53
2022/03/05 07:44:37;;;;;;;523.59;471.61;;;;;;;16.57;40.89;100892.22;;;;-52
2022/03/05 07:47:37;;;;;;;523.61;471.41;;;;;;;16.57;40.92;100893.76;;;;-53
2022/03/05 07:50:37;;;;;;;528.04;475.61;;;;;;;16.57;40.89;100894.23;;;;-52
2022/03/05 07:53:37;;;;;;;529.24;476.77;;;;;;;16.56;40.87;100894.16;;;;-56
2022/03/05 07:56:37;;;;;;;526.70;474.34;;;;;;;16.56;40.87;100895.85;;;;-56
2022/03/05 07:59:37;;;;;;;526.11;473.75;;;;;;;16.56;40.83;100900.30;;;;-57
2022/03/05 08:02:37;;;;;;;527.61;475.24;;;;;;;16.55;40.90;100906.24;;;;-56
2022/03/05 08:05:37;;;;;;;530.34;477.74;;;;;;;16.54;40.88;100900.25;;;;-55
2022/03/05 08:08:37;;;;;;;523.53;471.36;;;;;;;16.54;40.88;100900.94;;;;-56
2022/03/05 08:11:37;;;;;;;530.29;477.79;;;;;;;16.55;40.93;100899.85;;;;-56
2022/03/05 08:14:37;;;;;;;528.84;476.43;;;;;;;16.54;40.94;100901.91;;;;-56
2022/03/05 08:17:37;;;;;;;522.41;470.21;;;;;;;16.52;40.89;100901.05;;;;-54
2022/03/05 08:20:38;;;;;;;524.52;472.31;;;;;;;16.52;40.92;100903.35;;;;-56
2022/03/05 08:23:37;;;;;;;527.57;475.19;;;;;;;16.52;40.90;100904.89;;;;-55
2022/03/05 08:26:37;;;;;;;526.67;474.42;;;;;;;16.51;40.85;100907.28;;;;-56
2022/03/05 08:29:37;;;;;;;528.19;475.80;;;;;;;16.52;40.87;100909.47;;;;-54
2022/03/05 08:32:37;;;;;;;527.53;475.04;;;;;;;16.51;40.95;100906.62;;;;-54
2022/03/05 08:35:37;;;;;;;526.61;474.35;;;;;;;16.51;40.87;100908.56;;;;-54
2022/03/05 08:38:37;;;;;;;530.03;477.54;;;;;;;16.50;40.95;100904.76;;;;-56
2022/03/05 08:41:37;;;;;;;526.45;474.07;;;;;;;16.50;40.95;100908.56;;;;-56
2022/03/05 08:44:37;;;;;;;532.46;479.81;;;;;;;16.51;40.91;100916.73;;;;-55
2022/03/05 08:47:37;;;;;;;526.57;474.09;;;;;;;16.51;41.13;100912.20;;;;-50
2022/03/05 08:50:37;;;;;;;528.83;476.39;;;;;;;16.51;41.09;100907.44;;;;-48
2022/03/05 08:53:37;;;;;;;534.40;481.35;;;;;;;16.52;41.17;100906.71;;;;-56
2022/03/05 08:56:37;;;;;;;532.43;479.84;;;;;;;16.53;41.28;100901.66;;;;-49
2022/03/05 08:59:37;;;;;;;535.12;482.33;;;;;;;16.57;41.45;100909.94;;;;-59
2022/03/05 09:02:37;;;;;;;537.74;485.06;;;;;;;16.61;41.33;100907.86;;;;-51
2022/03/05 09:05:37;;;;;;;538.76;485.87;;;;;;;16.66;41.42;100907.32;;;;-59
2022/03/05 09:08:38;;;;;;;542.49;489.55;;;;;;;16.71;41.37;100903.91;;;;-54
2022/03/05 09:11:38;;;;;;;541.91;489.08;;;;;;;16.77;41.32;100907.30;;;;-59
2022/03/05 09:14:37;;;;;;;548.45;495.17;;;;;;;16.82;41.33;100904.20;;;;-54
2022/03/05 09:17:37;;;;;;;548.38;495.41;;;;;;;16.87;41.33;100910.48;;;;-51
2022/03/05 09:20:37;;;;;;;554.53;501.26;;;;;;;16.91;41.43;100913.18;;;;-54
2022/03/05 09:23:37;;;;;;;556.59;503.31;;;;;;;16.96;41.42;100911.58;;;;-49
2022/03/05 09:26:37;;;;;;;555.83;502.51;;;;;;;17.00;41.51;100908.20;;;;-49
2022/03/05 09:29:37;;;;;;;556.53;503.00;;;;;;;17.05;41.41;100909.92;;;;-48
2022/03/05 09:32:37;;;;;;;561.57;507.92;;;;;;;17.10;41.56;100908.73;;;;-59
2022/03/05 09:35:38;;;;;;;565.46;511.73;;;;;;;17.15;41.54;100909.27;;;;-50
2022/03/05 09:38:37;;;;;;;566.46;512.55;;;;;;;17.18;41.53;100901.47;;;;-59
2022/03/05 09:41:37;;;;;;;569.13;515.10;;;;;;;17.23;41.58;100910.92;;;;-54
2022/03/05 09:44:38;;;;;;;569.34;515.51;;;;;;;17.30;41.54;100902.80;;;;-50
2022/03/05 09:47:37;;;;;;;571.48;517.49;;;;;;;17.32;41.54;100898.96;;;;-51
2022/03/05 09:50:37;;;;;;;576.81;522.75;;;;;;;17.42;41.74;100898.37;;;;-49
2022/03/05 09:53:37;;;;;;;582.49;528.17;;;;;;;17.50;41.76;100897.01;;;;-54
2022/03/05 09:56:37;;;;;;;588.69;534.16;;;;;;;17.56;41.87;100898.36;;;;-52
2022/03/05 09:59:37;;;;;;;590.39;535.63;;;;;;;17.63;41.87;100897.36;;;;-54
2022/03/05 10:02:38;;;;;;;590.73;536.28;;;;;;;17.70;42.04;100895.98;;;;-52
2022/03/05 10:05:37;;;;;;;596.33;541.51;;;;;;;17.77;42.05;100895.30;;;;-51
2022/03/05 10:08:37;;;;;;;599.41;544.41;;;;;;;17.83;42.07;100892.22;;;;-52
2022/03/05 10:11:37;;;;;;;601.03;546.11;;;;;;;17.89;41.95;100891.05;;;;-51
2022/03/05 10:14:37;;;;;;;605.63;550.11;;;;;;;17.94;41.80;100892.50;;;;-49
2022/03/05 10:17:37;;;;;;;605.04;549.80;;;;;;;18.02;42.11;100889.98;;;;-48
2022/03/05 10:21:37;;;;;;;601.10;545.82;;;;;;;18.10;41.88;100888.69;;;;-49
2022/03/05 10:24:37;;;;;;;606.27;551.10;;;;;;;18.15;41.88;100890.47;;;;-49
2022/03/05 10:27:37;;;;;;;608.87;553.31;;;;;;;18.21;41.83;100893.50;;;;-51
2022/03/05 10:30:37;;;;;;;611.69;556.33;;;;;;;18.21;41.75;100893.58;;;;-49
2022/03/05 10:33:37;;;;;;;611.34;555.71;;;;;;;18.22;41.72;100892.23;;;;-56
2022/03/05 10:36:37;;;;;;;608.00;552.94;;;;;;;18.28;41.66;100893.38;;;;-57
2022/03/05 10:39:37;;;;;;;610.86;555.10;;;;;;;18.30;41.86;100887.28;;;;-52
2022/03/05 10:42:37;;;;;;;613.62;558.15;;;;;;;18.35;41.76;100884.11;;;;-53
2022/03/05 10:45:37;;;;;;;607.30;552.22;;;;;;;18.38;41.71;100883.83;;;;-57
2022/03/05 10:48:40;;;;;;;606.01;550.81;;;;;;;18.42;41.71;100883.00;;;;-56
2022/03/05 10:51:37;;;;;;;609.33;554.19;;;;;;;18.46;41.75;100881.13;;;;-56
2022/03/05 10:54:39;;;;;;;613.91;558.41;;;;;;;18.48;41.71;100879.62;;;;-49
2022/03/05 10:57:37;;;;;;;611.43;555.99;;;;;;;18.51;41.74;100873.97;;;;-57
2022/03/05 11:00:37;;;;;;;623.55;567.77;;;;;;;18.56;41.74;100872.86;;;;-55
2022/03/05 11:03:37;;;;;;;624.57;568.49;;;;;;;18.59;41.73;100871.35;;;;-53
2022/03/05 11:06:37;;;;;;;623.36;567.45;;;;;;;18.62;41.72;100873.37;;;;-58
2022/03/05 11:09:37;;;;;;;626.03;570.00;;;;;;;18.66;41.68;100864.83;;;;-51
2022/03/05 11:12:37;;;;;;;626.41;570.44;;;;;;;18.69;41.67;100864.87;;;;-49
2022/03/05 11:15:37;;;;;;;628.48;572.41;;;;;;;18.70;41.65;100858.16;;;;-55
2022/03/05 11:18:37;;;;;;;629.47;573.27;;;;;;;18.74;41.88;100851.81;;;;-53
2022/03/05 11:21:37;;;;;;;631.65;575.25;;;;;;;18.77;41.75;100857.13;;;;-53
2022/03/05 11:24:37;;;;;;;635.27;578.87;;;;;;;18.78;41.80;100849.20;;;;-51
2022/03/05 11:27:37;;;;;;;634.61;577.93;;;;;;;18.82;41.73;100846.73;;;;-58
2022/03/05 11:30:37;;;;;;;634.93;578.46;;;;;;;18.84;41.79;100844.98;;;;-56
2022/03/05 11:33:38;;;;;;;637.80;581.13;;;;;;;18.87;41.66;100838.06;;;;-57
2022/03/05 11:36:38;;;;;;;639.74;582.85;;;;;;;18.89;41.58;100836.06;;;;-52
2022/03/05 11:39:37;;;;;;;641.91;585.05;;;;;;;18.91;41.68;100832.93;;;;-51
2022/03/05 11:42:37;;;;;;;646.96;589.71;;;;;;;18.93;41.76;100822.56;;;;-52
2022/03/05 11:45:37;;;;;;;643.05;586.11;;;;;;;18.94;41.64;100824.75;;;;-53
2022/03/05 11:48:37;;;;;;;645.02;587.98;;;;;;;18.93;41.37;100824.92;;;;-53
2022/03/05 11:51:37;;;;;;;641.12;584.19;;;;;;;18.90;41.31;100827.86;;;;-53
2022/03/05 11:54:37;;;;;;;641.85;584.93;;;;;;;18.87;41.20;100824.58;;;;-53
2022/03/05 11:57:37;;;;;;;640.39;583.22;;;;;;;18.85;41.18;100824.64;;;;-50
2022/03/05 12:00:37;;;;;;;644.65;587.43;;;;;;;18.83;41.23;100819.08;;;;-56
2022/03/05 12:03:37;;;;;;;637.23;580.43;;;;;;;18.81;41.19;100817.67;;;;-56
2022/03/05 12:06:37;;;;;;;638.45;581.59;;;;;;;18.81;41.14;100806.55;;;;-51
2022/03/05 12:09:37;;;;;;;637.51;580.77;;;;;;;18.81;41.15;100817.10;;;;-53
2022/03/05 12:12:37;;;;;;;640.96;584.05;;;;;;;18.80;41.15;100813.34;;;;-52
2022/03/05 12:15:37;;;;;;;637.79;581.10;;;;;;;18.80;41.07;100807.73;;;;-55
2022/03/05 12:18:37;;;;;;;639.45;582.74;;;;;;;18.82;41.07;100815.56;;;;-56
2022/03/05 12:21:37;;;;;;;638.84;582.03;;;;;;;18.81;41.06;100808.73;;;;-52
2022/03/05 12:24:37;;;;;;;636.13;579.53;;;;;;;18.81;41.04;100808.66;;;;-51
2022/03/05 12:27:37;;;;;;;635.72;579.12;;;;;;;18.81;41.04;100802.65;;;;-53
2022/03/05 12:30:37;;;;;;;636.37;579.65;;;;;;;18.81;41.01;100803.70;;;;-53
2022/03/05 12:33:37;;;;;;;634.47;577.81;;;;;;;18.80;41.06;100796.56;;;;-52
2022/03/05 12:36:37;;;;;;;634.51;577.91;;;;;;;18.80;41.08;100798.56;;;;-53
2022/03/05 12:39:37;;;;;;;631.26;574.73;;;;;;;18.80;40.99;100791.85;;;;-51
2022/03/05 12:42:37;;;;;;;585.17;531.60;;;;;;;18.81;41.02;100790.72;;;;-51
2022/03/05 12:45:38;;;;;;;580.11;526.79;;;;;;;18.80;40.94;100792.09;;;;-51
2022/03/05 12:48:37;;;;;;;578.07;525.11;;;;;;;18.80;40.96;100787.95;;;;-51
2022/03/05 12:51:37;;;;;;;579.14;526.00;;;;;;;18.81;40.97;100778.38;;;;-51
2022/03/05 12:54:37;;;;;;;581.31;527.97;;;;;;;18.81;40.90;100775.05;;;;-51
2022/03/05 12:57:37;;;;;;;594.42;540.32;;;;;;;18.81;40.89;100769.44;;;;-51
2022/03/05 13:00:37;;;;;;;584.45;530.85;;;;;;;18.81;40.89;100768.79;;;;-51
2022/03/05 13:03:37;;;;;;;596.14;542.05;;;;;;;18.82;40.90;100764.24;;;;-51
2022/03/05 13:06:37;;;;;;;592.39;538.39;;;;;;;18.82;40.84;100758.19;;;;-51
2022/03/05 13:09:37;;;;;;;594.47;540.23;;;;;;;18.82;40.91;100759.48;;;;-53
2022/03/05 13:12:37;;;;;;;594.92;540.89;;;;;;;18.82;40.95;100757.86;;;;-51
2022/03/05 13:15:38;;;;;;;596.09;541.80;;;;;;;18.82;40.87;100760.30;;;;-51
2022/03/05 13:18:37;;;;;;;596.62;542.34;;;;;;;18.83;40.92;100759.56;;;;-53
2022/03/05 13:21:37;;;;;;;587.92;534.25;;;;;;;18.83;40.80;100754.28;;;;-53
2022/03/05 13:24:37;;;;;;;597.71;543.51;;;;;;;18.83;40.86;100752.83;;;;-53
2022/03/05 13:27:37;;;;;;;596.94;542.78;;;;;;;18.84;40.82;100753.72;;;;-53
2022/03/05 13:30:37;;;;;;;595.81;541.72;;;;;;;18.83;40.80;100753.96;;;;-53
2022/03/05 13:33:37;;;;;;;597.16;542.84;;;;;;;18.84;40.89;100751.44;;;;-53
2022/03/05 13:36:37;;;;;;;605.30;550.71;;;;;;;18.84;40.86;100752.85;;;;-54
2022/03/05 13:39:37;;;;;;;604.95;550.31;;;;;;;18.84;40.80;100754.20;;;;-53
2022/03/05 13:42:37;;;;;;;608.61;553.88;;;;;;;18.84;40.80;100750.42;;;;-53
2022/03/05 13:45:38;;;;;;;609.87;554.98;;;;;;;18.84;40.78;100747.79;;;;-53
2022/03/05 13:48:37;;;;;;;615.57;560.22;;;;;;;18.88;41.06;100749.88;;;;-52
2022/03/05 13:51:37;;;;;;;614.32;559.19;;;;;;;18.91;41.25;100745.38;;;;-52
2022/03/05 13:54:37;;;;;;;614.63;559.59;;;;;;;18.94;41.37;100741.75;;;;-53
2022/03/05 13:57:37;;;;;;;617.82;562.63;;;;;;;18.97;41.55;100740.02;;;;-53
2022/03/05 14:00:37;;;;;;;617.77;562.59;;;;;;;19.00;41.43;100742.81;;;;-52
2022/03/05 14:03:38;;;;;;;614.04;559.15;;;;;;;19.02;41.49;100740.89;;;;-52
2022/03/05 14:06:37;;;;;;;613.88;558.83;;;;;;;19.06;41.71;100734.11;;;;-55
2022/03/05 14:09:37;;;;;;;614.87;560.05;;;;;;;19.08;41.76;100738.53;;;;-59
2022/03/05 14:12:37;;;;;;;611.63;556.93;;;;;;;19.11;41.78;100732.30;;;;-53
2022/03/05 14:15:37;;;;;;;613.54;558.87;;;;;;;19.12;41.69;100729.97;;;;-59
2022/03/05 14:18:37;;;;;;;616.71;561.82;;;;;;;19.16;41.49;100733.67;;;;-57
2022/03/05 14:21:37;;;;;;;616.55;561.51;;;;;;;19.17;41.32;100726.77;;;;-53
2022/03/05 14:24:37;;;;;;;615.87;560.86;;;;;;;19.22;41.35;100722.05;;;;-57
2022/03/05 14:27:37;;;;;;;620.12;564.96;;;;;;;19.23;41.34;100718.23;;;;-52
2022/03/05 14:30:37;;;;;;;619.51;564.41;;;;;;;19.25;41.34;100717.84;;;;-56
2022/03/05 14:33:38;;;;;;;619.13;564.08;;;;;;;19.30;41.33;100710.73;;;;-55
2022/03/05 14:36:37;;;;;;;632.73;577.02;;;;;;;19.32;41.41;100718.19;;;;-55
2022/03/05 14:39:37;;;;;;;650.03;593.41;;;;;;;19.35;41.33;100716.66;;;;-54
2022/03/05 14:42:37;;;;;;;647.33;590.75;;;;;;;19.37;41.28;100716.44;;;;-53
2022/03/05 14:45:37;;;;;;;637.09;580.95;;;;;;;19.36;41.17;100715.44;;;;-51
2022/03/05 14:48:37;;;;;;;641.59;585.39;;;;;;;19.34;41.04;100711.35;;;;-51
2022/03/05 14:51:37;;;;;;;635.89;579.73;;;;;;;19.32;41.03;100710.79;;;;-54
2022/03/05 14:54:37;;;;;;;634.14;578.33;;;;;;;19.31;40.91;100708.33;;;;-54
2022/03/05 14:57:37;;;;;;;635.61;579.67;;;;;;;19.29;40.94;100714.48;;;;-55
2022/03/05 15:00:37;;;;;;;632.05;576.35;;;;;;;19.27;41.00;100723.15;;;;-55
2022/03/05 15:03:37;;;;;;;631.06;575.25;;;;;;;19.27;40.94;100717.78;;;;-54
2022/03/05 15:06:37;;;;;;;636.25;579.99;;;;;;;19.28;40.94;100714.29;;;;-50
2022/03/05 15:09:37;;;;;;;632.40;576.67;;;;;;;19.27;40.92;100710.39;;;;-51
2022/03/05 15:12:37;;;;;;;635.30;579.34;;;;;;;19.27;40.93;100716.81;;;;-51
2022/03/05 15:15:37;;;;;;;629.92;574.07;;;;;;;19.27;40.94;100716.00;;;;-54
2022/03/05 15:18:37;;;;;;;634.95;579.09;;;;;;;19.27;40.83;100715.27;;;;-50
2022/03/05 15:21:37;;;;;;;631.44;575.67;;;;;;;19.27;40.92;100709.66;;;;-54
2022/03/05 15:24:37;;;;;;;634.59;578.49;;;;;;;19.26;40.88;100712.83;;;;-51
2022/03/05 15:27:37;;;;;;;632.11;576.48;;;;;;;19.26;40.85;100705.68;;;;-50
2022/03/05 15:30:37;;;;;;;629.35;573.81;;;;;;;19.26;40.85;100711.67;;;;-55
2022/03/05 15:33:37;;;;;;;622.90;567.79;;;;;;;19.25;40.70;100713.53;;;;-51
2022/03/05 15:36:37;;;;;;;627.97;572.58;;;;;;;19.26;40.78;100709.55;;;;-51
2022/03/05 15:39:37;;;;;;;626.95;571.59;;;;;;;19.25;40.73;100711.91;;;;-55
2022/03/05 15:42:37;;;;;;;624.71;569.43;;;;;;;19.25;40.81;100710.45;;;;-50
2022/03/05 15:45:37;;;;;;;628.39;572.89;;;;;;;19.27;40.69;100710.23;;;;-50
2022/03/05 15:48:37;;;;;;;633.19;577.39;;;;;;;19.26;40.84;100712.83;;;;-50
2022/03/05 15:51:37;;;;;;;629.81;574.29;;;;;;;19.30;40.83;100707.33;;;;-53